AFL1079 UIII-RJTT
Flight info
| Callsign | AFL1079 |
|---|---|
| Flight time | N/A |
| Altitude | 39000 |
| Route | GOLOS4D GOLOS A810 TELOK/K0898F410 A345 MANLI/K0898S1250 A345 HLD B451 BISUN/K0900F410 B451 IGROD/N0492F410 B451 KADBO R211 GTC Y303 SASAP/N0494F400 Y10 GODIN |
| Aircraft | A359/H-SDE2E3GHIJ3J4J5LM1ORWXY/LB1D1 |
Departure
| Time | 2026-05-09 13:38 |
|---|---|
| Airport | Irkutsk International Airport (UIII) |
Arrival
| Time | N/A |
|---|---|
| Airport | Tokyo Haneda International Airport (RJTT) |
| Time | Latitude | Longitude | Altitude | Speed | Heading |
|---|---|---|---|---|---|
| 2026-05-09 13:07 | 52.26609 | 104.38026 | 1623 ft | 0 kts | 200° |
| 2026-05-09 13:19 | 52.26610 | 104.38027 | 1630 ft | 3 kts | 200° |
| 2026-05-09 13:20 | 52.26622 | 104.38035 | 1629 ft | 0 kts | 200° |
| 2026-05-09 13:24 | 52.26624 | 104.38036 | 1623 ft | 3 kts | 200° |
| 2026-05-09 13:24 | 52.26642 | 104.38047 | 1629 ft | 3 kts | 218° |
| 2026-05-09 13:25 | 52.26656 | 104.38070 | 1628 ft | 3 kts | 216° |
| 2026-05-09 13:25 | 52.26671 | 104.38086 | 1628 ft | 3 kts | 210° |
| 2026-05-09 13:25 | 52.26688 | 104.38102 | 1627 ft | 0 kts | 210° |
| 2026-05-09 13:30 | 52.26667 | 104.38079 | 1627 ft | 0 kts | 214° |
| 2026-05-09 13:32 | 52.26664 | 104.38067 | 1627 ft | 4 kts | 242° |
| 2026-05-09 13:32 | 52.26723 | 104.37816 | 1625 ft | 17 kts | 294° |
| 2026-05-09 13:32 | 52.26775 | 104.37628 | 1618 ft | 20 kts | 293° |
| 2026-05-09 13:33 | 52.26834 | 104.37408 | 1618 ft | 23 kts | 294° |
| 2026-05-09 13:33 | 52.26894 | 104.37186 | 1608 ft | 19 kts | 294° |
| 2026-05-09 13:33 | 52.26949 | 104.37136 | 1613 ft | 7 kts | 12° |
| 2026-05-09 13:33 | 52.26984 | 104.37188 | 1604 ft | 9 kts | 49° |
| 2026-05-09 13:34 | 52.27011 | 104.37241 | 1614 ft | 9 kts | 52° |
| 2026-05-09 13:34 | 52.27045 | 104.37319 | 1614 ft | 8 kts | 54° |
| 2026-05-09 13:34 | 52.27077 | 104.37392 | 1610 ft | 7 kts | 55° |
| 2026-05-09 13:34 | 52.27104 | 104.37456 | 1616 ft | 6 kts | 56° |
| 2026-05-09 13:35 | 52.27104 | 104.37472 | 1610 ft | 0 kts | 98° |
| 2026-05-09 13:36 | 52.27107 | 104.37483 | 1612 ft | 1 kts | 67° |
| 2026-05-09 13:37 | 52.27157 | 104.37617 | 1617 ft | 18 kts | 68° |
| 2026-05-09 13:37 | 52.27156 | 104.37782 | 1620 ft | 34 kts | 107° |
| 2026-05-09 13:37 | 52.26953 | 104.38575 | 1632 ft | 117 kts | 110° |
| 2026-05-09 13:37 | 52.26570 | 104.40003 | 1710 ft | 178 kts | 112° |
| 2026-05-09 13:38 | 52.26053 | 104.42000 | 2052 ft | 218 kts | 111° |
| 2026-05-09 13:38 | 52.25399 | 104.44445 | 2742 ft | 251 kts | 111° |
| 2026-05-09 13:38 | 52.24831 | 104.47209 | 3662 ft | 258 kts | 95° |
| 2026-05-09 13:38 | 52.24946 | 104.49963 | 4102 ft | 241 kts | 78° |
| 2026-05-09 13:39 | 52.25224 | 104.52681 | 4661 ft | 272 kts | 80° |
| 2026-05-09 13:39 | 52.25463 | 104.55805 | 5645 ft | 289 kts | 83° |
| 2026-05-09 13:39 | 52.25647 | 104.59128 | 6676 ft | 299 kts | 84° |
| 2026-05-09 13:39 | 52.25795 | 104.62501 | 8122 ft | 293 kts | 84° |
| 2026-05-09 13:40 | 52.25928 | 104.65844 | 9323 ft | 298 kts | 83° |
| 2026-05-09 13:40 | 52.26062 | 104.69307 | 10125 ft | 315 kts | 83° |
| 2026-05-09 13:40 | 52.26202 | 104.73004 | 10624 ft | 337 kts | 83° |
| 2026-05-09 13:40 | 52.26344 | 104.76926 | 11103 ft | 359 kts | 84° |
| 2026-05-09 13:41 | 52.26490 | 104.81105 | 11568 ft | 380 kts | 84° |
| 2026-05-09 13:41 | 52.26642 | 104.85526 | 12061 ft | 400 kts | 84° |
| 2026-05-09 13:41 | 52.26799 | 104.90176 | 12554 ft | 419 kts | 84° |
| 2026-05-09 13:41 | 52.26956 | 104.94929 | 13061 ft | 408 kts | 84° |
| 2026-05-09 13:42 | 52.27094 | 104.99390 | 13643 ft | 385 kts | 84° |
| 2026-05-09 13:42 | 52.27234 | 105.03765 | 14130 ft | 386 kts | 84° |
| 2026-05-09 13:42 | 52.27375 | 105.08143 | 14612 ft | 387 kts | 84° |
| 2026-05-09 13:42 | 52.27518 | 105.12581 | 15099 ft | 399 kts | 84° |
| 2026-05-09 13:43 | 52.27665 | 105.17188 | 15600 ft | 415 kts | 84° |
| 2026-05-09 13:43 | 52.27815 | 105.21978 | 16099 ft | 430 kts | 84° |
| 2026-05-09 13:43 | 52.27968 | 105.26945 | 16601 ft | 445 kts | 84° |
| 2026-05-09 13:43 | 52.28117 | 105.31974 | 17117 ft | 443 kts | 85° |
| 2026-05-09 13:44 | 52.28263 | 105.36972 | 17760 ft | 438 kts | 85° |
| 2026-05-09 13:44 | 52.28682 | 105.41828 | 18381 ft | 428 kts | 70° |
| 2026-05-09 13:44 | 52.29956 | 105.46123 | 18959 ft | 415 kts | 51° |
| 2026-05-09 13:44 | 52.31874 | 105.49537 | 19538 ft | 406 kts | 41° |
| 2026-05-09 13:45 | 52.33548 | 105.53294 | 19876 ft | 417 kts | 60° |
| 2026-05-09 13:45 | 52.34428 | 105.57699 | 19945 ft | 434 kts | 77° |
| 2026-05-09 13:45 | 52.34598 | 105.62695 | 19941 ft | 449 kts | 89° |
| 2026-05-09 13:45 | 52.34339 | 105.67857 | 19947 ft | 460 kts | 94° |
| 2026-05-09 13:46 | 52.33920 | 105.73083 | 19942 ft | 465 kts | 95° |
| 2026-05-09 13:46 | 52.33492 | 105.78331 | 19949 ft | 466 kts | 95° |
| 2026-05-09 13:46 | 52.33117 | 105.83588 | 19955 ft | 465 kts | 94° |
| 2026-05-09 13:46 | 52.32807 | 105.88777 | 20098 ft | 465 kts | 92° |
| 2026-05-09 13:47 | 52.32539 | 105.94033 | 20599 ft | 461 kts | 92° |
| 2026-05-09 13:47 | 52.32300 | 105.99215 | 21222 ft | 454 kts | 91° |
| 2026-05-09 13:47 | 52.32075 | 106.04326 | 21914 ft | 447 kts | 91° |
| 2026-05-09 13:47 | 52.31855 | 106.09381 | 22591 ft | 446 kts | 91° |
| 2026-05-09 13:48 | 52.31635 | 106.14454 | 23276 ft | 449 kts | 91° |
| 2026-05-09 13:48 | 52.31410 | 106.19554 | 23894 ft | 450 kts | 91° |
| 2026-05-09 13:48 | 52.31179 | 106.24656 | 24485 ft | 451 kts | 91° |
| 2026-05-09 13:48 | 52.30944 | 106.29777 | 25090 ft | 452 kts | 91° |
| 2026-05-09 13:49 | 52.30704 | 106.34888 | 25716 ft | 452 kts | 90° |
| 2026-05-09 13:49 | 52.30462 | 106.40005 | 26338 ft | 451 kts | 90° |
| 2026-05-09 13:49 | 52.30218 | 106.45102 | 26980 ft | 450 kts | 90° |
| 2026-05-09 13:49 | 52.29991 | 106.50196 | 27635 ft | 448 kts | 89° |
| 2026-05-09 13:50 | 52.29822 | 106.55263 | 28340 ft | 445 kts | 88° |
| 2026-05-09 13:50 | 52.29686 | 106.60301 | 29049 ft | 442 kts | 88° |
| 2026-05-09 13:50 | 52.29561 | 106.65289 | 29750 ft | 438 kts | 87° |
| 2026-05-09 13:50 | 52.29437 | 106.70238 | 30393 ft | 434 kts | 87° |
| 2026-05-09 13:51 | 52.29308 | 106.75132 | 31008 ft | 429 kts | 87° |
| 2026-05-09 13:51 | 52.29175 | 106.79960 | 31654 ft | 422 kts | 87° |
| 2026-05-09 13:51 | 52.29038 | 106.84719 | 32318 ft | 415 kts | 87° |
| 2026-05-09 13:51 | 52.28899 | 106.89389 | 32899 ft | 409 kts | 87° |
| 2026-05-09 13:52 | 52.28761 | 106.93995 | 33446 ft | 403 kts | 87° |
| 2026-05-09 13:52 | 52.28622 | 106.98520 | 34065 ft | 393 kts | 87° |
| 2026-05-09 13:52 | 52.28482 | 107.02940 | 34431 ft | 391 kts | 87° |
| 2026-05-09 13:52 | 52.28347 | 107.07406 | 34459 ft | 397 kts | 87° |
| 2026-05-09 13:53 | 52.28068 | 107.16571 | 34455 ft | 412 kts | 88° |
| 2026-05-09 13:53 | 52.27769 | 107.26089 | 34445 ft | 427 kts | 88° |
| 2026-05-09 13:54 | 52.27444 | 107.35959 | 34430 ft | 444 kts | 88° |
| 2026-05-09 13:54 | 52.27095 | 107.46137 | 34414 ft | 460 kts | 88° |
| 2026-05-09 13:55 | 52.26911 | 107.51377 | 34600 ft | 463 kts | 89° |
| 2026-05-09 13:55 | 52.26718 | 107.56583 | 35074 ft | 458 kts | 89° |
| 2026-05-09 13:55 | 52.26521 | 107.61763 | 35458 ft | 455 kts | 89° |
| 2026-05-09 13:55 | 52.26324 | 107.66907 | 35828 ft | 453 kts | 89° |
| 2026-05-09 13:56 | 52.26127 | 107.72010 | 36216 ft | 449 kts | 89° |
| 2026-05-09 13:56 | 52.25930 | 107.77086 | 36612 ft | 445 kts | 89° |
| 2026-05-09 13:56 | 52.25735 | 107.82104 | 37016 ft | 441 kts | 89° |
| 2026-05-09 13:56 | 52.25539 | 107.87062 | 37419 ft | 436 kts | 89° |
| 2026-05-09 13:57 | 52.25348 | 107.91973 | 37832 ft | 430 kts | 89° |
| 2026-05-09 13:57 | 52.25160 | 107.96799 | 38265 ft | 423 kts | 89° |
| 2026-05-09 13:57 | 52.24975 | 108.01555 | 38617 ft | 418 kts | 89° |
| 2026-05-09 13:57 | 52.24791 | 108.06270 | 38810 ft | 415 kts | 89° |
| 2026-05-09 13:58 | 52.24423 | 108.15662 | 38924 ft | 416 kts | 89° |
| 2026-05-09 13:58 | 52.24041 | 108.25127 | 38927 ft | 420 kts | 89° |
| 2026-05-09 13:59 | 52.23645 | 108.34689 | 38932 ft | 426 kts | 90° |
| 2026-05-09 13:59 | 52.23234 | 108.44387 | 38931 ft | 432 kts | 90° |
| 2026-05-09 14:00 | 52.22953 | 108.50891 | 38932 ft | 435 kts | 90° |
| 2026-05-09 14:00 | 52.22370 | 108.64178 | 38935 ft | 444 kts | 91° |
| 2026-05-09 14:01 | 52.21915 | 108.74299 | 38929 ft | 451 kts | 91° |
| 2026-05-09 14:01 | 52.21442 | 108.84580 | 38928 ft | 459 kts | 91° |
| 2026-05-09 14:02 | 52.20953 | 108.95034 | 38926 ft | 466 kts | 91° |
| 2026-05-09 14:02 | 52.20450 | 109.05608 | 38934 ft | 475 kts | 91° |
| 2026-05-09 14:03 | 52.19926 | 109.16433 | 38927 ft | 483 kts | 92° |
| 2026-05-09 14:03 | 52.19381 | 109.27420 | 38925 ft | 491 kts | 92° |
| 2026-05-09 14:04 | 52.18840 | 109.38161 | 38928 ft | 499 kts | 92° |
| 2026-05-09 14:04 | 52.18259 | 109.49500 | 38920 ft | 506 kts | 92° |
| 2026-05-09 14:05 | 52.17659 | 109.61014 | 38920 ft | 513 kts | 92° |
| 2026-05-09 14:05 | 52.17039 | 109.72668 | 38917 ft | 519 kts | 92° |
| 2026-05-09 14:06 | 52.15546 | 109.84245 | 38917 ft | 527 kts | 104° |
| 2026-05-09 14:06 | 52.13341 | 109.95650 | 38916 ft | 529 kts | 106° |
| 2026-05-09 14:07 | 52.11011 | 110.07012 | 38914 ft | 529 kts | 107° |
| 2026-05-09 14:07 | 52.08681 | 110.18344 | 38914 ft | 528 kts | 107° |
| 2026-05-09 14:08 | 52.06361 | 110.29673 | 38913 ft | 528 kts | 107° |
| 2026-05-09 14:08 | 52.04039 | 110.40997 | 38912 ft | 528 kts | 107° |
| 2026-05-09 14:09 | 52.01706 | 110.52310 | 38919 ft | 528 kts | 107° |
| 2026-05-09 14:09 | 51.99360 | 110.63619 | 38909 ft | 529 kts | 107° |
| 2026-05-09 14:10 | 51.95816 | 110.80578 | 38912 ft | 530 kts | 107° |
| 2026-05-09 14:11 | 51.93437 | 110.91879 | 38912 ft | 530 kts | 107° |
| 2026-05-09 14:11 | 51.91051 | 111.03158 | 38914 ft | 529 kts | 107° |
| 2026-05-09 14:12 | 51.88668 | 111.14351 | 38913 ft | 529 kts | 107° |
| 2026-05-09 14:12 | 51.86254 | 111.25631 | 38915 ft | 526 kts | 107° |
| 2026-05-09 14:13 | 51.83867 | 111.36722 | 38913 ft | 525 kts | 107° |
| 2026-05-09 14:15 | 51.74194 | 111.81053 | 38913 ft | 523 kts | 108° |
| 2026-05-09 14:15 | 51.71749 | 111.92096 | 38913 ft | 522 kts | 108° |
| 2026-05-09 14:16 | 51.69297 | 112.03113 | 38902 ft | 522 kts | 108° |
| 2026-05-09 14:16 | 51.66837 | 112.14114 | 38903 ft | 523 kts | 108° |
| 2026-05-09 14:17 | 51.64355 | 112.25155 | 38896 ft | 526 kts | 108° |
| 2026-05-09 14:17 | 51.61854 | 112.36220 | 38886 ft | 526 kts | 108° |
| 2026-05-09 14:18 | 51.59342 | 112.47271 | 38886 ft | 526 kts | 109° |
| 2026-05-09 14:18 | 51.56819 | 112.58315 | 38881 ft | 526 kts | 109° |
| 2026-05-09 14:19 | 51.54288 | 112.69335 | 38878 ft | 526 kts | 109° |
| 2026-05-09 14:19 | 51.51747 | 112.80345 | 38875 ft | 525 kts | 109° |
| 2026-05-09 14:20 | 51.49200 | 112.91324 | 38870 ft | 525 kts | 109° |
| 2026-05-09 14:20 | 51.46642 | 113.02292 | 38870 ft | 525 kts | 109° |
| 2026-05-09 14:21 | 51.43218 | 113.16890 | 38870 ft | 525 kts | 109° |
| 2026-05-09 14:21 | 51.40638 | 113.27820 | 38876 ft | 523 kts | 110° |
| 2026-05-09 14:22 | 51.37641 | 113.40452 | 38878 ft | 522 kts | 110° |
| 2026-05-09 14:22 | 51.35052 | 113.51305 | 38884 ft | 522 kts | 110° |
| 2026-05-09 14:23 | 51.32876 | 113.60380 | 38885 ft | 522 kts | 110° |
| 2026-05-09 14:23 | 51.30266 | 113.71224 | 38881 ft | 523 kts | 110° |
| 2026-05-09 14:24 | 51.27637 | 113.82086 | 38873 ft | 524 kts | 110° |
| 2026-05-09 14:24 | 51.25004 | 113.92915 | 38866 ft | 524 kts | 110° |
| 2026-05-09 14:25 | 51.22359 | 114.03737 | 38866 ft | 524 kts | 110° |
| 2026-05-09 14:25 | 51.19721 | 114.14482 | 38862 ft | 524 kts | 110° |
| 2026-05-09 14:26 | 51.17057 | 114.25278 | 38861 ft | 524 kts | 110° |
| 2026-05-09 14:26 | 51.14384 | 114.36056 | 38861 ft | 524 kts | 110° |
| 2026-05-09 14:27 | 51.11697 | 114.46841 | 38854 ft | 524 kts | 110° |
| 2026-05-09 14:27 | 51.08630 | 114.57344 | 38854 ft | 525 kts | 117° |
| 2026-05-09 14:28 | 51.05095 | 114.67493 | 38844 ft | 525 kts | 119° |
| 2026-05-09 14:28 | 51.01478 | 114.77561 | 38834 ft | 525 kts | 119° |
| 2026-05-09 14:29 | 50.97857 | 114.87597 | 38835 ft | 524 kts | 119° |
| 2026-05-09 14:29 | 50.94230 | 114.97653 | 38826 ft | 524 kts | 119° |
| 2026-05-09 14:30 | 50.90612 | 115.07667 | 38820 ft | 524 kts | 119° |
| 2026-05-09 14:30 | 50.86984 | 115.17674 | 38826 ft | 524 kts | 119° |
| 2026-05-09 14:31 | 50.83351 | 115.27651 | 38821 ft | 523 kts | 119° |
| 2026-05-09 14:31 | 50.79704 | 115.37626 | 38815 ft | 523 kts | 120° |
| 2026-05-09 14:32 | 50.76055 | 115.47567 | 38816 ft | 523 kts | 120° |
| 2026-05-09 14:32 | 50.72398 | 115.57496 | 38815 ft | 523 kts | 120° |
| 2026-05-09 14:33 | 50.68728 | 115.67418 | 38815 ft | 524 kts | 120° |
| 2026-05-09 14:33 | 50.65246 | 115.76796 | 38815 ft | 524 kts | 120° |
| 2026-05-09 14:34 | 50.61683 | 115.86359 | 38817 ft | 524 kts | 120° |
| 2026-05-09 14:34 | 50.57982 | 115.96244 | 38817 ft | 524 kts | 120° |
| 2026-05-09 14:35 | 50.54162 | 116.05981 | 38821 ft | 523 kts | 122° |
| 2026-05-09 14:35 | 50.50266 | 116.15645 | 38823 ft | 523 kts | 122° |
| 2026-05-09 14:36 | 50.46369 | 116.25296 | 38823 ft | 523 kts | 122° |
| 2026-05-09 14:36 | 50.42497 | 116.34891 | 38823 ft | 523 kts | 122° |
| 2026-05-09 14:37 | 50.38376 | 116.44170 | 38823 ft | 522 kts | 131° |
| 2026-05-09 14:37 | 50.33050 | 116.51863 | 38823 ft | 522 kts | 141° |
| 2026-05-09 14:38 | 50.27378 | 116.58966 | 38824 ft | 522 kts | 142° |
| 2026-05-09 14:38 | 50.21665 | 116.65952 | 38828 ft | 522 kts | 142° |
| 2026-05-09 14:39 | 50.15959 | 116.72960 | 38829 ft | 522 kts | 142° |
| 2026-05-09 14:39 | 50.10260 | 116.79960 | 38821 ft | 522 kts | 142° |
| 2026-05-09 14:40 | 50.04556 | 116.86927 | 38822 ft | 521 kts | 142° |
| 2026-05-09 14:40 | 49.98841 | 116.93887 | 38819 ft | 521 kts | 143° |
| 2026-05-09 14:41 | 49.93139 | 117.00809 | 38815 ft | 520 kts | 143° |
| 2026-05-09 14:41 | 49.87432 | 117.07720 | 38815 ft | 520 kts | 143° |
| 2026-05-09 14:42 | 49.81722 | 117.14611 | 38812 ft | 520 kts | 143° |
| 2026-05-09 14:42 | 49.76011 | 117.21484 | 38809 ft | 520 kts | 143° |
| 2026-05-09 14:43 | 49.70310 | 117.28322 | 38807 ft | 518 kts | 143° |
| 2026-05-09 14:43 | 49.64637 | 117.35165 | 38804 ft | 517 kts | 140° |
| 2026-05-09 14:44 | 49.59523 | 117.42963 | 38796 ft | 518 kts | 133° |
| 2026-05-09 14:44 | 49.55699 | 117.50313 | 38801 ft | 518 kts | 127° |
| 2026-05-09 14:45 | 49.51428 | 117.59161 | 38798 ft | 519 kts | 127° |
| 2026-05-09 14:45 | 49.47141 | 117.68105 | 38798 ft | 519 kts | 127° |
| 2026-05-09 14:46 | 49.42837 | 117.77004 | 38799 ft | 519 kts | 127° |
| 2026-05-09 14:46 | 49.38514 | 117.85874 | 38798 ft | 518 kts | 127° |
| 2026-05-09 14:47 | 49.34195 | 117.94694 | 38799 ft | 517 kts | 127° |
| 2026-05-09 14:47 | 49.29952 | 118.03582 | 38794 ft | 516 kts | 122° |
| 2026-05-09 14:48 | 49.27048 | 118.13594 | 38792 ft | 516 kts | 104° |
| 2026-05-09 14:48 | 49.26129 | 118.24440 | 38791 ft | 516 kts | 93° |
| 2026-05-09 14:49 | 49.25796 | 118.35411 | 38793 ft | 516 kts | 91° |
| 2026-05-09 14:49 | 49.25516 | 118.46401 | 38793 ft | 516 kts | 91° |
| 2026-05-09 14:50 | 49.25188 | 118.57367 | 38796 ft | 516 kts | 92° |
| 2026-05-09 14:50 | 49.24824 | 118.68265 | 38798 ft | 516 kts | 92° |
| 2026-05-09 14:51 | 49.24439 | 118.79229 | 38796 ft | 516 kts | 92° |
| 2026-05-09 14:51 | 49.24044 | 118.90191 | 38796 ft | 516 kts | 92° |
| 2026-05-09 14:52 | 49.23641 | 119.01153 | 38797 ft | 516 kts | 92° |
| 2026-05-09 14:52 | 49.23228 | 119.12105 | 38807 ft | 516 kts | 92° |
| 2026-05-09 14:53 | 49.22804 | 119.23066 | 38799 ft | 517 kts | 92° |
| 2026-05-09 14:53 | 49.22370 | 119.34044 | 38796 ft | 517 kts | 92° |
| 2026-05-09 14:54 | 49.21924 | 119.45029 | 38799 ft | 517 kts | 92° |
| 2026-05-09 14:54 | 49.21468 | 119.56005 | 38799 ft | 517 kts | 92° |
| 2026-05-09 14:55 | 49.21003 | 119.66968 | 38796 ft | 517 kts | 92° |
| 2026-05-09 14:55 | 49.20238 | 119.77905 | 38796 ft | 518 kts | 102° |
| 2026-05-09 14:56 | 49.17604 | 119.88114 | 38805 ft | 519 kts | 120° |
| 2026-05-09 14:56 | 49.13683 | 119.97390 | 38801 ft | 519 kts | 125° |
| 2026-05-09 14:57 | 49.09505 | 120.06375 | 38801 ft | 519 kts | 126° |
| 2026-05-09 14:57 | 49.05330 | 120.15354 | 38804 ft | 519 kts | 125° |
| 2026-05-09 14:58 | 49.01192 | 120.24364 | 38815 ft | 519 kts | 125° |
| 2026-05-09 14:58 | 48.97073 | 120.33362 | 38815 ft | 519 kts | 125° |
| 2026-05-09 14:59 | 48.92965 | 120.42315 | 38827 ft | 519 kts | 124° |
| 2026-05-09 14:59 | 48.88837 | 120.51278 | 38840 ft | 520 kts | 125° |
| 2026-05-09 15:00 | 48.84679 | 120.60270 | 38842 ft | 520 kts | 125° |
| 2026-05-09 15:00 | 48.80506 | 120.69265 | 38851 ft | 522 kts | 125° |
| 2026-05-09 15:01 | 48.74229 | 120.82738 | 38862 ft | 522 kts | 125° |
| 2026-05-09 15:02 | 48.70037 | 120.91697 | 38867 ft | 521 kts | 125° |
| 2026-05-09 15:02 | 48.65840 | 121.00640 | 38867 ft | 521 kts | 125° |
| 2026-05-09 15:03 | 48.61627 | 121.09587 | 38868 ft | 522 kts | 125° |
| 2026-05-09 15:03 | 48.57403 | 121.18526 | 38865 ft | 523 kts | 125° |
| 2026-05-09 15:04 | 48.53173 | 121.27449 | 38859 ft | 523 kts | 125° |
| 2026-05-09 15:06 | 48.36160 | 121.63041 | 38859 ft | 523 kts | 126° |
| 2026-05-09 15:06 | 48.31889 | 121.71906 | 38860 ft | 524 kts | 126° |
| 2026-05-09 15:07 | 48.27617 | 121.80740 | 38855 ft | 522 kts | 126° |
| 2026-05-09 15:07 | 48.23372 | 121.89491 | 38854 ft | 521 kts | 126° |
| 2026-05-09 15:08 | 48.19098 | 121.98275 | 38853 ft | 521 kts | 126° |
| 2026-05-09 15:08 | 48.12682 | 122.11405 | 38846 ft | 521 kts | 126° |
| 2026-05-09 15:10 | 47.96249 | 122.44753 | 38837 ft | 519 kts | 126° |
| 2026-05-09 15:11 | 47.91949 | 122.53411 | 38834 ft | 519 kts | 126° |
| 2026-05-09 15:11 | 47.87649 | 122.62043 | 38837 ft | 519 kts | 127° |
| 2026-05-09 15:12 | 47.83344 | 122.70657 | 38826 ft | 518 kts | 127° |
| 2026-05-09 15:12 | 47.79100 | 122.79178 | 38826 ft | 518 kts | 126° |
| 2026-05-09 15:13 | 47.74923 | 122.87912 | 38824 ft | 518 kts | 125° |
| 2026-05-09 15:13 | 47.70771 | 122.96682 | 38823 ft | 519 kts | 125° |
| 2026-05-09 15:14 | 47.66604 | 123.05429 | 38826 ft | 519 kts | 125° |
| 2026-05-09 15:14 | 47.62419 | 123.14151 | 38826 ft | 519 kts | 125° |
| 2026-05-09 15:15 | 47.58221 | 123.22863 | 38827 ft | 520 kts | 125° |
| 2026-05-09 15:15 | 47.54010 | 123.31572 | 38826 ft | 520 kts | 125° |
| 2026-05-09 15:16 | 47.49794 | 123.40266 | 38826 ft | 520 kts | 126° |
| 2026-05-09 15:16 | 47.45601 | 123.48887 | 38827 ft | 520 kts | 126° |
| 2026-05-09 15:17 | 47.41378 | 123.57541 | 38823 ft | 520 kts | 126° |
| 2026-05-09 15:17 | 47.37138 | 123.66206 | 38829 ft | 520 kts | 126° |
| 2026-05-09 15:18 | 47.32897 | 123.74842 | 38831 ft | 520 kts | 126° |
| 2026-05-09 15:18 | 47.28649 | 123.83467 | 38830 ft | 520 kts | 126° |
| 2026-05-09 15:19 | 47.24308 | 123.91948 | 38831 ft | 519 kts | 132° |
| 2026-05-09 15:19 | 47.19362 | 123.99682 | 38834 ft | 519 kts | 135° |
| 2026-05-09 15:20 | 47.11741 | 124.10975 | 38840 ft | 519 kts | 135° |
| 2026-05-09 15:21 | 47.06655 | 124.18471 | 38843 ft | 518 kts | 135° |
| 2026-05-09 15:21 | 47.01576 | 124.25966 | 38843 ft | 518 kts | 135° |
| 2026-05-09 15:22 | 46.96494 | 124.33455 | 38842 ft | 518 kts | 135° |
| 2026-05-09 15:22 | 46.91409 | 124.40929 | 38848 ft | 518 kts | 135° |
| 2026-05-09 15:23 | 46.86320 | 124.48386 | 38848 ft | 518 kts | 135° |
| 2026-05-09 15:23 | 46.81225 | 124.55831 | 38848 ft | 518 kts | 135° |
| 2026-05-09 15:24 | 46.76132 | 124.63252 | 38846 ft | 517 kts | 135° |
| 2026-05-09 15:24 | 46.71042 | 124.70647 | 38852 ft | 517 kts | 135° |
| 2026-05-09 15:25 | 46.65945 | 124.78031 | 38851 ft | 517 kts | 136° |
| 2026-05-09 15:25 | 46.60847 | 124.85396 | 38856 ft | 517 kts | 136° |
| 2026-05-09 15:26 | 46.53183 | 124.96429 | 38857 ft | 517 kts | 136° |
| 2026-05-09 15:26 | 46.48063 | 125.03773 | 38859 ft | 517 kts | 136° |
| 2026-05-09 15:27 | 46.42983 | 125.11040 | 38865 ft | 517 kts | 136° |
| 2026-05-09 15:27 | 46.37823 | 125.18402 | 38862 ft | 518 kts | 136° |
| 2026-05-09 15:28 | 46.32711 | 125.25674 | 38865 ft | 518 kts | 136° |
| 2026-05-09 15:28 | 46.27570 | 125.32969 | 38863 ft | 518 kts | 136° |
| 2026-05-09 15:29 | 46.22463 | 125.40334 | 38870 ft | 518 kts | 135° |
| 2026-05-09 15:29 | 46.17387 | 125.47735 | 38870 ft | 518 kts | 135° |
| 2026-05-09 15:30 | 46.12315 | 125.55107 | 38870 ft | 518 kts | 135° |
| 2026-05-09 15:30 | 46.07271 | 125.62404 | 38874 ft | 519 kts | 135° |
| 2026-05-09 15:31 | 46.02169 | 125.69755 | 38873 ft | 519 kts | 135° |
| 2026-05-09 15:31 | 45.97066 | 125.77086 | 38876 ft | 519 kts | 135° |
| 2026-05-09 15:32 | 45.91954 | 125.84411 | 38880 ft | 519 kts | 135° |
| 2026-05-09 15:32 | 45.86832 | 125.91730 | 38878 ft | 519 kts | 135° |
| 2026-05-09 15:33 | 45.81713 | 125.99026 | 38878 ft | 519 kts | 135° |
| 2026-05-09 15:33 | 45.76586 | 126.06313 | 38879 ft | 519 kts | 136° |
| 2026-05-09 15:34 | 45.71456 | 126.13584 | 38881 ft | 519 kts | 136° |
| 2026-05-09 15:34 | 45.66322 | 126.20840 | 38884 ft | 519 kts | 136° |
| 2026-05-09 15:35 | 45.61253 | 126.28084 | 38884 ft | 519 kts | 134° |
| 2026-05-09 15:35 | 45.56348 | 126.35662 | 38884 ft | 519 kts | 133° |
| 2026-05-09 15:36 | 45.51500 | 126.43305 | 38887 ft | 520 kts | 133° |
| 2026-05-09 15:36 | 45.46624 | 126.50923 | 38893 ft | 520 kts | 133° |
| 2026-05-09 15:37 | 45.41732 | 126.58495 | 38905 ft | 520 kts | 133° |
| 2026-05-09 15:37 | 45.36825 | 126.66051 | 38908 ft | 520 kts | 133° |
| 2026-05-09 15:38 | 45.31907 | 126.73604 | 38911 ft | 520 kts | 133° |
| 2026-05-09 15:38 | 45.26995 | 126.81130 | 38916 ft | 520 kts | 133° |
| 2026-05-09 15:39 | 45.22074 | 126.88650 | 38922 ft | 520 kts | 133° |
| 2026-05-09 15:39 | 45.18395 | 126.94258 | 38922 ft | 520 kts | 133° |
| 2026-05-09 15:40 | 45.13463 | 127.01760 | 38924 ft | 520 kts | 133° |
| 2026-05-09 15:40 | 45.08529 | 127.09242 | 38925 ft | 520 kts | 133° |
| 2026-05-09 15:41 | 45.03620 | 127.16670 | 38928 ft | 520 kts | 133° |
| 2026-05-09 15:41 | 44.98731 | 127.24188 | 38933 ft | 520 kts | 133° |
| 2026-05-09 15:42 | 44.93841 | 127.31810 | 38935 ft | 520 kts | 133° |
| 2026-05-09 15:42 | 44.89004 | 127.39331 | 38939 ft | 520 kts | 133° |
| 2026-05-09 15:43 | 44.84136 | 127.46861 | 38944 ft | 520 kts | 133° |
| 2026-05-09 15:43 | 44.79333 | 127.54261 | 38952 ft | 520 kts | 133° |
| 2026-05-09 15:44 | 44.74446 | 127.61769 | 38953 ft | 520 kts | 133° |
| 2026-05-09 15:44 | 44.69556 | 127.69262 | 38963 ft | 520 kts | 133° |
| 2026-05-09 15:45 | 44.64662 | 127.76742 | 38973 ft | 520 kts | 133° |
| 2026-05-09 15:45 | 44.59756 | 127.84220 | 38986 ft | 521 kts | 133° |
| 2026-05-09 15:46 | 44.54843 | 127.91690 | 38992 ft | 521 kts | 133° |
| 2026-05-09 15:46 | 44.49951 | 127.99105 | 38992 ft | 521 kts | 133° |
| 2026-05-09 15:47 | 44.44991 | 128.06606 | 39007 ft | 521 kts | 133° |
| 2026-05-09 15:47 | 44.40093 | 128.13992 | 39020 ft | 521 kts | 133° |
| 2026-05-09 15:48 | 44.35129 | 128.21458 | 39031 ft | 521 kts | 133° |
| 2026-05-09 15:48 | 44.30216 | 128.28828 | 39038 ft | 522 kts | 133° |
| 2026-05-09 15:49 | 44.25266 | 128.36234 | 39039 ft | 522 kts | 133° |
| 2026-05-09 15:49 | 44.20312 | 128.43626 | 39048 ft | 522 kts | 133° |
| 2026-05-09 15:50 | 44.15344 | 128.51018 | 39043 ft | 522 kts | 133° |
| 2026-05-09 15:50 | 44.10381 | 128.58403 | 39039 ft | 522 kts | 133° |
| 2026-05-09 15:51 | 44.05432 | 128.65804 | 39030 ft | 523 kts | 133° |
| 2026-05-09 15:51 | 44.00470 | 128.73212 | 39032 ft | 524 kts | 133° |
| 2026-05-09 15:52 | 43.93011 | 128.84301 | 39031 ft | 524 kts | 134° |
| 2026-05-09 15:53 | 43.88034 | 128.91674 | 39031 ft | 524 kts | 134° |
| 2026-05-09 15:53 | 43.83041 | 128.99050 | 39031 ft | 525 kts | 134° |
| 2026-05-09 15:54 | 43.78036 | 129.06425 | 39030 ft | 525 kts | 134° |
| 2026-05-09 15:54 | 43.73036 | 129.13792 | 39036 ft | 525 kts | 133° |
| 2026-05-09 15:55 | 43.68075 | 129.21206 | 39040 ft | 525 kts | 132° |
| 2026-05-09 15:55 | 43.64267 | 129.28619 | 39041 ft | 526 kts | 117° |
| 2026-05-09 15:56 | 43.61792 | 129.38065 | 39038 ft | 524 kts | 103° |
| 2026-05-09 15:56 | 43.60196 | 129.47881 | 39033 ft | 524 kts | 100° |
| 2026-05-09 15:57 | 43.58747 | 129.57743 | 39034 ft | 524 kts | 100° |
| 2026-05-09 15:57 | 43.57497 | 129.65921 | 39035 ft | 524 kts | 101° |
| 2026-05-09 15:58 | 43.55937 | 129.75744 | 39028 ft | 524 kts | 101° |
| 2026-05-09 15:58 | 43.54087 | 129.87151 | 39027 ft | 525 kts | 101° |
| 2026-05-09 15:59 | 43.52747 | 129.95373 | 39026 ft | 525 kts | 101° |
| 2026-05-09 15:59 | 43.51142 | 130.05178 | 39029 ft | 524 kts | 101° |
| 2026-05-09 16:00 | 43.49535 | 130.14939 | 39026 ft | 522 kts | 101° |
| 2026-05-09 16:00 | 43.47928 | 130.24682 | 39022 ft | 522 kts | 101° |
| 2026-05-09 16:01 | 43.46307 | 130.34434 | 39029 ft | 522 kts | 101° |
| 2026-05-09 16:01 | 43.44679 | 130.44150 | 39026 ft | 522 kts | 101° |
| 2026-05-09 16:02 | 43.43040 | 130.53887 | 39023 ft | 522 kts | 101° |
| 2026-05-09 16:02 | 43.40566 | 130.68480 | 39020 ft | 523 kts | 101° |
| 2026-05-09 16:03 | 43.38917 | 130.78150 | 39021 ft | 523 kts | 101° |
| 2026-05-09 16:03 | 43.37247 | 130.87888 | 39019 ft | 523 kts | 101° |
| 2026-05-09 16:04 | 43.35569 | 130.97622 | 39015 ft | 524 kts | 102° |
| 2026-05-09 16:04 | 43.33878 | 131.07376 | 39006 ft | 525 kts | 102° |
| 2026-05-09 16:05 | 43.32180 | 131.17117 | 39006 ft | 525 kts | 102° |
| 2026-05-09 16:05 | 43.30470 | 131.26873 | 39014 ft | 525 kts | 102° |
| 2026-05-09 16:06 | 43.28752 | 131.36621 | 38992 ft | 526 kts | 102° |
| 2026-05-09 16:06 | 43.27032 | 131.46325 | 38994 ft | 526 kts | 102° |
| 2026-05-09 16:07 | 43.25284 | 131.56131 | 39000 ft | 527 kts | 102° |
| 2026-05-09 16:07 | 43.23536 | 131.65892 | 38978 ft | 527 kts | 102° |
| 2026-05-09 16:08 | 43.21780 | 131.75649 | 38978 ft | 528 kts | 102° |
| 2026-05-09 16:08 | 43.20013 | 131.85413 | 38981 ft | 528 kts | 102° |
| 2026-05-09 16:09 | 43.18879 | 131.95312 | 38993 ft | 525 kts | 94° |
| 2026-05-09 16:09 | 43.18195 | 132.05268 | 38989 ft | 525 kts | 92° |
| 2026-05-09 16:10 | 43.17575 | 132.15249 | 38982 ft | 526 kts | 92° |
| 2026-05-09 16:10 | 43.16940 | 132.25241 | 38979 ft | 527 kts | 92° |
| 2026-05-09 16:11 | 43.16283 | 132.35226 | 38978 ft | 526 kts | 93° |
| 2026-05-09 16:11 | 43.15609 | 132.45147 | 38974 ft | 527 kts | 94° |
| 2026-05-09 16:12 | 43.13873 | 132.54983 | 38985 ft | 532 kts | 111° |
| 2026-05-09 16:12 | 43.09992 | 132.63505 | 38980 ft | 534 kts | 133° |
| 2026-05-09 16:13 | 43.04142 | 132.69665 | 38972 ft | 531 kts | 154° |
| 2026-05-09 16:13 | 43.00737 | 132.71559 | 38986 ft | 529 kts | 165° |
| 2026-05-09 16:13 | 42.97156 | 132.72603 | 38982 ft | 525 kts | 176° |
| 2026-05-09 16:14 | 42.89958 | 132.72139 | 38980 ft | 515 kts | 196° |
| 2026-05-09 16:14 | 42.83413 | 132.68539 | 38977 ft | 504 kts | 216° |
| 2026-05-09 16:15 | 42.78196 | 132.62373 | 38981 ft | 493 kts | 234° |
| 2026-05-09 16:15 | 42.74751 | 132.54476 | 38989 ft | 482 kts | 252° |
| 2026-05-09 16:16 | 42.73346 | 132.45669 | 38984 ft | 474 kts | 269° |
| 2026-05-09 16:16 | 42.73488 | 132.36740 | 38985 ft | 472 kts | 276° |
| 2026-05-09 16:17 | 42.74012 | 132.27840 | 38978 ft | 473 kts | 277° |
| 2026-05-09 16:17 | 42.74847 | 132.18987 | 38989 ft | 471 kts | 284° |
| 2026-05-09 16:18 | 42.77035 | 132.10623 | 38983 ft | 470 kts | 298° |
| 2026-05-09 16:18 | 42.80891 | 132.03504 | 38984 ft | 469 kts | 316° |
| 2026-05-09 16:19 | 42.86234 | 131.98431 | 38991 ft | 472 kts | 333° |
| 2026-05-09 16:19 | 42.92537 | 131.95913 | 38988 ft | 477 kts | 351° |
| 2026-05-09 16:20 | 42.99189 | 131.96221 | 38985 ft | 484 kts | 8° |
| 2026-05-09 16:20 | 43.05557 | 131.99385 | 38975 ft | 494 kts | 25° |
| 2026-05-09 16:21 | 43.10980 | 132.05239 | 38977 ft | 504 kts | 44° |
| 2026-05-09 16:21 | 43.14827 | 132.13345 | 38982 ft | 515 kts | 63° |
| 2026-05-09 16:22 | 43.16548 | 132.22914 | 38981 ft | 525 kts | 83° |
| 2026-05-09 16:22 | 43.16411 | 132.32949 | 38979 ft | 529 kts | 91° |
| 2026-05-09 16:23 | 43.15826 | 132.43004 | 38980 ft | 530 kts | 92° |
| 2026-05-09 16:23 | 43.15123 | 132.53061 | 38997 ft | 532 kts | 94° |
| 2026-05-09 16:24 | 43.14364 | 132.63140 | 38988 ft | 533 kts | 94° |
| 2026-05-09 16:24 | 43.13616 | 132.73234 | 38992 ft | 533 kts | 94° |
| 2026-05-09 16:25 | 43.12877 | 132.83320 | 38991 ft | 533 kts | 94° |
| 2026-05-09 16:25 | 43.12133 | 132.93414 | 38992 ft | 533 kts | 94° |
| 2026-05-09 16:26 | 43.11386 | 133.03431 | 39016 ft | 531 kts | 94° |
| 2026-05-09 16:26 | 43.11008 | 133.08440 | 39242 ft | 527 kts | 94° |
| 2026-05-09 16:26 | 43.10631 | 133.13415 | 39492 ft | 524 kts | 94° |
| 2026-05-09 16:27 | 43.10254 | 133.18352 | 39805 ft | 520 kts | 94° |
| 2026-05-09 16:27 | 43.09878 | 133.23244 | 40154 ft | 515 kts | 94° |
| 2026-05-09 16:27 | 43.09503 | 133.28097 | 40522 ft | 510 kts | 94° |
| 2026-05-09 16:27 | 43.09131 | 133.32896 | 40857 ft | 506 kts | 94° |
| 2026-05-09 16:28 | 43.08758 | 133.37683 | 40981 ft | 507 kts | 95° |
| 2026-05-09 16:28 | 43.08382 | 133.42490 | 40991 ft | 510 kts | 95° |
| 2026-05-09 16:28 | 43.07617 | 133.52188 | 40981 ft | 517 kts | 95° |
| 2026-05-09 16:29 | 43.06832 | 133.62014 | 40988 ft | 523 kts | 95° |
| 2026-05-09 16:29 | 43.06028 | 133.71963 | 40975 ft | 529 kts | 95° |
| 2026-05-09 16:30 | 43.05208 | 133.82005 | 40988 ft | 533 kts | 95° |
| 2026-05-09 16:30 | 43.04374 | 133.92100 | 40980 ft | 536 kts | 95° |
| 2026-05-09 16:31 | 43.03527 | 134.02235 | 40967 ft | 537 kts | 95° |
| 2026-05-09 16:31 | 43.02672 | 134.12370 | 40966 ft | 537 kts | 95° |
| 2026-05-09 16:32 | 43.01953 | 134.20801 | 40963 ft | 538 kts | 95° |
| 2026-05-09 16:32 | 43.00930 | 134.32675 | 40960 ft | 539 kts | 95° |
| 2026-05-09 16:33 | 43.00044 | 134.42835 | 40952 ft | 539 kts | 95° |
| 2026-05-09 16:33 | 42.99086 | 134.52981 | 40944 ft | 539 kts | 100° |
| 2026-05-09 16:34 | 42.96574 | 134.62591 | 40944 ft | 540 kts | 120° |
| 2026-05-09 16:34 | 42.92212 | 134.70911 | 40943 ft | 540 kts | 129° |
| 2026-05-09 16:35 | 42.87462 | 134.78843 | 40942 ft | 540 kts | 130° |
| 2026-05-09 16:35 | 42.82661 | 134.86746 | 40942 ft | 541 kts | 130° |
| 2026-05-09 16:36 | 42.73130 | 135.02612 | 40949 ft | 542 kts | 130° |
| 2026-05-09 16:37 | 42.68369 | 135.10551 | 40948 ft | 542 kts | 130° |
| 2026-05-09 16:37 | 42.63638 | 135.18437 | 40949 ft | 541 kts | 130° |
| 2026-05-09 16:38 | 42.58897 | 135.26358 | 40955 ft | 541 kts | 130° |
| 2026-05-09 16:38 | 42.54150 | 135.34276 | 40955 ft | 541 kts | 130° |
| 2026-05-09 16:39 | 42.49394 | 135.42180 | 40958 ft | 541 kts | 131° |
| 2026-05-09 16:39 | 42.44623 | 135.50066 | 40960 ft | 541 kts | 131° |
| 2026-05-09 16:40 | 42.39844 | 135.57918 | 40963 ft | 541 kts | 131° |